Terminal Aerodrome Forecast
Issued by NWS Jackson, MS

Home | Current Version | Previous Version | Text Only | Print | Product List | Glossary On
Versions: 1 2 3 4 5 6 7 8 9 10 11 12 13 14 15 16 17
000
FTUS44 KJAN 221100 RRA
TAFMEI
TAF
KMEI 221145Z 2212/2312 11005KT 5SM BR VCSH OVC004
     FM221530 15008KT 6SM BR VCSH OVC009
     FM221900 16009KT P6SM VCSH BKN014
     FM230000 18011KT 4SM -RA BR OVC007
     FM230900 22003KT 2SM BR OVC003=

USA.gov is the U.S. government's official web portal to all federal, state and local government web resources and services.